Time;durP1;ratioP1;P1;durP2;ratioP2;P2;SDS_P1;SDS_P2;PMS_P1;PMS_P2;Temp;Humidity;BMP_temperature;BMP_pressure;BME280_temperature;BME280_humidity;BME280_pressure;Samples;Min_cycle;Max_cycle;Signal;HPM_P1;HPM_P2
2022/07/09 00:01:03;;;;;;;1999.90;999.90;;;16.50;99.90;;;;;;5111262;28;20460;-68
2022/07/09 00:03:31;;;;;;;1999.90;999.90;;;16.60;99.90;;;;;;5112833;28;20483;-69
2022/07/09 00:05:58;;;;;;;1999.90;999.90;;;16.60;99.90;;;;;;5113260;28;20963;-69
2022/07/09 00:08:25;;;;;;;1999.90;999.90;;;16.50;99.90;;;;;;5112565;28;20439;-69
2022/07/09 00:10:51;;;;;;;1999.90;999.90;;;16.40;99.90;;;;;;5110558;28;20568;-68
2022/07/09 00:13:18;;;;;;;1999.90;999.90;;;16.30;99.90;;;;;;5109989;28;20894;-68
2022/07/09 00:15:45;;;;;;;1999.90;999.90;;;16.30;99.90;;;;;;5111019;28;20448;-69
2022/07/09 00:18:11;;;;;;;1999.90;999.90;;;16.20;99.90;;;;;;5111265;28;20578;-70
2022/07/09 00:20:39;;;;;;;1999.90;999.90;;;16.20;99.90;;;;;;5109007;28;20495;-68
2022/07/09 00:23:06;;;;;;;1999.90;999.90;;;16.20;99.90;;;;;;5110638;28;20475;-69
2022/07/09 00:25:33;;;;;;;1999.90;999.90;;;16.20;99.90;;;;;;5110985;28;20465;-69
2022/07/09 00:27:59;;;;;;;1999.90;999.90;;;16.20;99.90;;;;;;5111636;28;20443;-69
2022/07/09 00:30:26;;;;;;;1999.90;999.90;;;16.30;99.90;;;;;;5110852;28;20439;-69
2022/07/09 00:32:53;;;;;;;1999.90;999.90;;;16.30;99.90;;;;;;5112183;28;20524;-68
2022/07/09 00:35:19;;;;;;;1999.90;999.90;;;16.30;99.90;;;;;;5112159;28;20944;-69
2022/07/09 00:37:47;;;;;;;1999.90;999.90;;;16.30;99.90;;;;;;5112027;28;20816;-69
2022/07/09 00:40:14;;;;;;;1999.90;999.90;;;16.30;99.90;;;;;;5112713;28;20496;-68
2022/07/09 00:42:41;;;;;;;1999.90;999.90;;;16.30;99.90;;;;;;5110388;28;20487;-68
2022/07/09 00:45:08;;;;;;;1999.90;999.90;;;16.30;99.90;;;;;;5112351;28;20440;-69
2022/07/09 00:47:35;;;;;;;1999.90;999.90;;;16.30;99.90;;;;;;5112226;28;20481;-69
2022/07/09 00:50:02;;;;;;;1999.90;999.90;;;16.30;99.90;;;;;;5112496;28;20440;-69
2022/07/09 00:52:31;;;;;;;1999.90;999.90;;;16.30;99.90;;;;;;5110411;28;20484;-69
2022/07/09 00:55:01;;;;;;;1999.90;999.90;;;16.30;99.90;;;;;;5112466;28;20504;-70
2022/07/09 00:57:29;;;;;;;1999.90;999.90;;;16.30;99.90;;;;;;5112305;28;20470;-69
2022/07/09 00:59:56;;;;;;;1999.90;999.90;;;16.30;99.90;;;;;;5111835;28;20801;-69
2022/07/09 01:02:23;;;;;;;1999.90;999.90;;;16.30;99.90;;;;;;5109804;28;21134;-69
2022/07/09 01:04:50;;;;;;;1999.90;999.90;;;16.30;99.90;;;;;;5112257;28;20496;-69
2022/07/09 01:07:16;;;;;;;1999.90;999.90;;;16.30;99.90;;;;;;5112319;28;20447;-69
2022/07/09 01:09:43;;;;;;;1999.90;999.90;;;16.30;99.90;;;;;;5112170;28;20444;-69
2022/07/09 01:12:11;;;;;;;1999.90;999.90;;;16.40;99.90;;;;;;5108322;28;20563;-69
2022/07/09 01:14:38;;;;;;;1999.90;999.90;;;16.40;99.90;;;;;;5109738;28;20464;-69
2022/07/09 01:17:06;;;;;;;1999.90;999.90;;;16.40;99.90;;;;;;5112206;28;20830;-69
2022/07/09 01:19:35;;;;;;;1999.90;999.90;;;16.30;99.90;;;;;;5112857;28;20446;-69
2022/07/09 01:22:03;;;;;;;1999.90;999.90;;;16.30;99.90;;;;;;5114121;28;20479;-69
2022/07/09 01:24:30;;;;;;;1999.90;999.90;;;16.30;99.90;;;;;;5116163;28;20451;-70
2022/07/09 01:26:57;;;;;;;1999.90;999.90;;;16.30;99.90;;;;;;5116224;28;20496;-69
2022/07/09 01:29:24;;;;;;;1999.90;999.90;;;16.30;99.90;;;;;;5116357;28;20821;-69
2022/07/09 01:31:50;;;;;;;1999.90;999.90;;;16.30;99.90;;;;;;5114007;28;20540;-69
2022/07/09 01:34:17;;;;;;;1999.90;999.90;;;16.30;99.90;;;;;;5116171;28;20427;-69
2022/07/09 01:36:44;;;;;;;1999.90;999.90;;;16.30;99.90;;;;;;5116121;28;20496;-69
2022/07/09 01:39:12;;;;;;;1999.90;999.90;;;16.30;99.90;;;;;;5115677;28;20448;-69
2022/07/09 01:41:38;;;;;;;1999.90;999.90;;;16.30;99.90;;;;;;5113791;28;20467;-69
2022/07/09 01:44:06;;;;;;;1999.90;999.90;;;16.30;99.90;;;;;;5115695;28;20548;-69
2022/07/09 01:46:33;;;;;;;1999.90;999.90;;;16.30;99.90;;;;;;5116019;28;20482;-68
2022/07/09 01:49:00;;;;;;;1999.90;999.90;;;16.20;99.90;;;;;;5115850;28;20447;-69
2022/07/09 01:51:26;;;;;;;1999.90;999.90;;;16.20;99.90;;;;;;5108147;28;20463;-69
2022/07/09 01:53:53;;;;;;;1999.90;999.90;;;16.20;99.90;;;;;;5115254;28;20886;-68
2022/07/09 01:56:21;;;;;;;1999.90;999.90;;;16.10;99.90;;;;;;5115912;28;20512;-69
2022/07/09 01:58:48;;;;;;;1999.90;999.90;;;16.10;99.90;;;;;;5115414;28;20444;-69
2022/07/09 02:01:14;;;;;;;1999.90;999.90;;;16.10;99.90;;;;;;5110685;28;20946;-69
2022/07/09 02:03:41;;;;;;;1999.90;999.90;;;16.20;99.90;;;;;;5113553;28;20480;-69
2022/07/09 02:06:07;;;;;;;1999.90;999.90;;;16.20;99.90;;;;;;5113941;28;20473;-69
2022/07/09 02:08:34;;;;;;;1999.90;999.90;;;16.20;99.90;;;;;;5114334;28;20799;-69
2022/07/09 02:11:01;;;;;;;1999.90;999.90;;;16.30;99.90;;;;;;5111797;28;20463;-69
2022/07/09 02:13:29;;;;;;;1999.90;999.90;;;16.40;99.90;;;;;;5112182;28;20480;-69
2022/07/09 02:15:55;;;;;;;1999.90;999.90;;;16.40;99.90;;;;;;5114583;28;20444;-69
2022/07/09 02:18:22;;;;;;;1999.90;999.90;;;16.40;99.90;;;;;;5115367;28;20489;-69
2022/07/09 02:20:48;;;;;;;1999.90;999.90;;;16.50;99.90;;;;;;5113191;28;20459;-69
2022/07/09 02:23:15;;;;;;;1999.90;999.90;;;16.40;99.90;;;;;;5115301;28;20532;-69
2022/07/09 02:25:42;;;;;;;1999.90;999.90;;;16.50;99.90;;;;;;5115414;28;20941;-69
2022/07/09 02:28:08;;;;;;;1999.90;999.90;;;16.50;99.90;;;;;;5115206;28;20439;-69
2022/07/09 02:30:36;;;;;;;1999.90;999.90;;;16.50;99.90;;;;;;5112752;28;20460;-70
2022/07/09 02:33:03;;;;;;;1999.90;999.90;;;16.40;99.90;;;;;;5114551;28;20467;-70
2022/07/09 02:35:30;;;;;;;1999.90;999.90;;;16.40;99.90;;;;;;5114721;28;20456;-69
2022/07/09 02:37:57;;;;;;;1999.90;999.90;;;16.30;99.90;;;;;;5114831;28;20443;-69
2022/07/09 02:40:23;;;;;;;1999.90;999.90;;;16.20;99.90;;;;;;5112806;28;20501;-69
2022/07/09 02:42:50;;;;;;;1999.90;999.90;;;16.10;99.90;;;;;;5114050;28;20475;-69
2022/07/09 02:45:16;;;;;;;1999.90;999.90;;;16.10;99.90;;;;;;5114799;28;20448;-70
2022/07/09 02:47:44;;;;;;;1999.90;999.90;;;16.10;99.90;;;;;;5114944;28;20512;-69
2022/07/09 02:50:11;;;;;;;1999.90;999.90;;;16.00;99.90;;;;;;5112623;28;20464;-68
2022/07/09 02:52:38;;;;;;;1999.90;999.90;;;16.00;99.90;;;;;;5102223;28;20544;-68
2022/07/09 02:55:05;;;;;;;1999.90;999.90;;;16.00;99.90;;;;;;5109933;28;20485;-68
2022/07/09 02:57:31;;;;;;;1999.90;999.90;;;15.90;99.90;;;;;;5103691;28;20538;-69
2022/07/09 02:59:59;;;;;;;1999.90;999.90;;;15.90;99.90;;;;;;5102949;28;20460;-69
2022/07/09 03:02:25;;;;;;;1999.90;999.90;;;15.80;99.90;;;;;;5105752;28;20508;-70
2022/07/09 03:04:53;;;;;;;1999.90;999.90;;;15.70;99.90;;;;;;5105233;28;20476;-70
2022/07/09 03:07:20;;;;;;;1999.90;999.90;;;15.70;99.90;;;;;;5104063;28;20461;-69
2022/07/09 03:09:47;;;;;;;1999.90;999.90;;;15.70;99.90;;;;;;5112245;28;20512;-69
2022/07/09 03:12:13;;;;;;;1999.90;999.90;;;15.70;99.90;;;;;;5113668;28;20520;-69
2022/07/09 03:14:40;;;;;;;1999.90;999.90;;;15.60;99.90;;;;;;5114320;28;20443;-69
2022/07/09 03:17:06;;;;;;;1999.90;999.90;;;15.60;99.90;;;;;;5111136;28;20873;-69
2022/07/09 03:19:33;;;;;;;1999.90;999.90;;;15.60;99.90;;;;;;5110737;28;20455;-69
2022/07/09 03:22:01;;;;;;;1999.90;999.90;;;15.70;99.90;;;;;;5108681;28;20517;-70
2022/07/09 03:24:27;;;;;;;1999.90;999.90;;;15.70;99.90;;;;;;5114315;28;20475;-69
2022/07/09 03:26:54;;;;;;;1999.90;999.90;;;15.60;99.90;;;;;;5114004;28;20822;-69
2022/07/09 03:29:20;;;;;;;1999.90;999.90;;;15.70;99.90;;;;;;5114050;28;20447;-69
2022/07/09 03:31:47;;;;;;;1999.90;999.90;;;15.70;99.90;;;;;;5111519;28;20463;-69
2022/07/09 03:34:14;;;;;;;1999.90;999.90;;;15.70;99.90;;;;;;5114035;28;20440;-69
2022/07/09 03:36:41;;;;;;;1999.90;999.90;;;15.70;99.90;;;;;;5113961;28;20475;-69
2022/07/09 03:39:09;;;;;;;1999.90;999.90;;;15.70;99.90;;;;;;5112915;28;20448;-69
2022/07/09 03:41:36;;;;;;;1999.90;999.90;;;15.70;99.90;;;;;;5111115;28;20984;-69
2022/07/09 03:44:03;;;;;;;1999.90;999.90;;;15.70;99.90;;;;;;5112921;28;20468;-69
2022/07/09 03:46:29;;;;;;;1999.90;999.90;;;16.00;99.90;;;;;;5113388;28;20509;-69
2022/07/09 03:48:56;;;;;;;1999.90;999.90;;;15.80;99.90;;;;;;5113535;28;20481;-69
2022/07/09 03:51:22;;;;;;;1999.90;999.90;;;15.90;99.90;;;;;;5109460;28;20967;-70
2022/07/09 03:53:49;;;;;;;1999.90;999.90;;;16.00;99.90;;;;;;5112802;28;20524;-69
2022/07/09 03:56:17;;;;;;;1999.90;999.90;;;16.10;99.90;;;;;;5113402;28;20439;-69
2022/07/09 03:58:43;;;;;;;1999.90;999.90;;;16.20;99.90;;;;;;5113645;28;20439;-69
2022/07/09 04:01:10;;;;;;;1999.90;999.90;;;16.20;99.90;;;;;;5111289;28;20508;-69
2022/07/09 04:03:37;;;;;;;1999.90;999.90;;;16.30;99.90;;;;;;5104750;28;20484;-69
2022/07/09 04:06:04;;;;;;;1999.90;999.90;;;16.20;99.90;;;;;;5113223;28;20451;-69
2022/07/09 04:08:30;;;;;;;1999.90;999.90;;;16.20;99.90;;;;;;5113142;28;20439;-69
2022/07/09 04:10:57;;;;;;;1999.90;999.90;;;16.20;99.90;;;;;;5110885;28;20467;-69
2022/07/09 04:13:25;;;;;;;1999.90;999.90;;;16.10;99.90;;;;;;5103714;28;20533;-69
2022/07/09 04:15:51;;;;;;;1999.90;999.90;;;16.10;99.90;;;;;;5099877;28;20501;-69
2022/07/09 04:18:18;;;;;;;1999.90;999.90;;;16.10;99.90;;;;;;5104471;28;20465;-70
2022/07/09 04:20:45;;;;;;;1999.90;999.90;;;16.20;99.90;;;;;;5103742;28;20467;-68
2022/07/09 04:23:11;;;;;;;1999.90;999.90;;;16.30;99.90;;;;;;5097721;28;20473;-69
2022/07/09 04:25:38;;;;;;;1999.90;999.90;;;16.30;99.90;;;;;;5107150;28;20517;-70
2022/07/09 04:28:05;;;;;;;1999.90;999.90;;;16.30;99.90;;;;;;5104277;28;20460;-70
2022/07/09 04:30:33;;;;;;;1999.90;999.90;;;16.40;99.90;;;;;;5104497;28;20472;-70
2022/07/09 04:33:00;;;;;;;1999.90;999.90;;;16.40;99.90;;;;;;5117592;22;20797;-76
2022/07/09 04:35:27;;;;;;;1999.90;999.90;;;16.40;99.90;;;;;;5047287;28;20474;-75
2022/07/09 04:37:53;;;;;;;1999.90;999.90;;;16.40;99.90;;;;;;5043781;28;20886;-75
2022/07/09 04:40:20;;;;;;;1999.90;999.90;;;16.50;99.90;;;;;;5041706;28;20463;-78
2022/07/09 04:42:46;;;;;;;1999.90;999.90;;;16.50;99.90;;;;;;5042986;28;20515;-75
2022/07/09 04:45:13;;;;;;;1999.90;999.90;;;16.60;99.90;;;;;;5048213;28;21048;-74
2022/07/09 04:47:41;;;;;;;1999.90;999.90;;;16.60;99.90;;;;;;5050363;28;20462;-75
2022/07/09 04:50:09;;;;;;;1999.90;999.90;;;16.60;99.90;;;;;;5043786;28;20458;-74
2022/07/09 04:52:36;;;;;;;1999.90;999.90;;;16.50;99.90;;;;;;5049443;28;20470;-73
2022/07/09 04:55:02;;;;;;;1999.90;999.90;;;16.60;99.90;;;;;;5046849;28;20540;-72
2022/07/09 04:57:29;;;;;;;1999.90;999.90;;;16.60;99.90;;;;;;5048150;28;20542;-73
2022/07/09 04:59:59;;;;;;;1999.90;999.90;;;16.50;99.90;;;;;;5048019;28;20462;-74
2022/07/09 05:02:26;;;;;;;1999.90;999.90;;;16.60;99.90;;;;;;5048697;28;20461;-78
2022/07/09 05:04:54;;;;;;;1999.90;999.90;;;16.60;99.90;;;;;;5048399;28;21004;-78
2022/07/09 05:07:20;;;;;;;1999.90;999.90;;;16.60;99.90;;;;;;5045768;28;20470;-75
2022/07/09 05:09:47;;;;;;;1999.90;999.90;;;16.50;99.90;;;;;;5048967;28;20663;-76
2022/07/09 05:12:13;;;;;;;1999.90;999.90;;;16.30;99.90;;;;;;5047461;28;20459;-75
2022/07/09 05:14:40;;;;;;;1999.90;999.90;;;16.30;99.90;;;;;;5047993;28;21267;-76
2022/07/09 05:17:07;;;;;;;1999.90;999.90;;;16.20;99.90;;;;;;5043652;28;20619;-75
2022/07/09 05:19:33;;;;;;;1999.90;999.90;;;16.30;99.90;;;;;;5041096;28;20451;-72
2022/07/09 05:22:02;;;;;;;1999.90;999.90;;;16.40;99.90;;;;;;5044169;28;20488;-74
2022/07/09 05:24:28;;;;;;;1999.90;999.90;;;16.50;99.90;;;;;;5044499;28;20488;-73
2022/07/09 05:26:55;;;;;;;1999.90;999.90;;;16.50;99.90;;;;;;5049014;28;20462;-73
2022/07/09 05:29:22;;;;;;;1999.90;999.90;;;16.50;99.90;;;;;;5044290;28;20458;-73
2022/07/09 05:31:49;;;;;;;1999.90;999.90;;;16.50;99.90;;;;;;5046620;28;21037;-71
2022/07/09 05:34:16;;;;;;;1999.90;999.90;;;16.40;99.90;;;;;;5047774;28;21026;-73
2022/07/09 05:36:42;;;;;;;1999.90;999.90;;;16.40;99.90;;;;;;5046809;28;20508;-74
2022/07/09 05:39:10;;;;;;;1999.90;999.90;;;16.50;99.90;;;;;;5048024;28;20466;-73
2022/07/09 05:41:37;;;;;;;1999.90;999.90;;;16.60;99.90;;;;;;5047377;28;20462;-73
2022/07/09 05:44:04;;;;;;;1999.90;999.90;;;16.70;99.90;;;;;;5042858;28;20529;-72
2022/07/09 05:46:30;;;;;;;1999.90;999.90;;;16.80;99.90;;;;;;5046363;28;20512;-71
2022/07/09 05:48:57;;;;;;;1999.90;999.90;;;16.80;99.90;;;;;;5050212;28;20539;-73
2022/07/09 05:51:24;;;;;;;1999.90;999.90;;;16.90;99.90;;;;;;5047856;28;20519;-70
2022/07/09 05:53:50;;;;;;;1999.90;999.90;;;16.90;99.90;;;;;;5050848;28;20524;-73
2022/07/09 05:56:18;;;;;;;1999.90;999.90;;;16.90;99.90;;;;;;5051029;28;21006;-73
2022/07/09 05:58:45;;;;;;;1999.90;999.90;;;17.00;99.90;;;;;;5051064;28;20488;-73
2022/07/09 06:01:13;;;;;;;1999.90;999.90;;;17.10;99.90;;;;;;5049544;28;20466;-75
2022/07/09 06:03:39;;;;;;;1999.90;999.90;;;17.30;99.90;;;;;;5050798;28;20470;-73
2022/07/09 06:06:06;;;;;;;1999.90;999.90;;;17.40;99.90;;;;;;5051399;28;20462;-75
2022/07/09 06:08:33;;;;;;;1999.90;999.90;;;17.30;99.90;;;;;;5052479;28;20442;-73
2022/07/09 06:11:01;;;;;;;1999.90;999.90;;;17.30;99.90;;;;;;5051559;28;20490;-72
2022/07/09 06:13:28;;;;;;;1999.90;999.90;;;17.40;99.90;;;;;;5050942;28;20478;-73
2022/07/09 06:15:55;;;;;;;1999.90;999.90;;;17.40;99.90;;;;;;5051109;28;20942;-71
2022/07/09 06:18:22;;;;;;;1999.90;999.90;;;17.50;99.90;;;;;;5052051;28;20880;-73
2022/07/09 06:20:49;;;;;;;1999.90;999.90;;;17.60;99.90;;;;;;5049624;28;20472;-77
2022/07/09 06:23:16;;;;;;;1999.90;999.90;;;17.70;99.90;;;;;;5052640;28;20543;-73
2022/07/09 06:25:42;;;;;;;1999.90;999.90;;;17.70;99.90;;;;;;5054523;28;20560;-73
2022/07/09 06:28:10;;;;;;;1999.90;999.90;;;17.80;99.90;;;;;;5053258;28;20462;-73
2022/07/09 06:30:38;;;;;;;1999.90;999.90;;;17.90;99.90;;;;;;5051195;28;20539;-72
2022/07/09 06:33:04;;;;;;;1999.90;999.90;;;17.90;99.90;;;;;;5051932;28;20466;-74
2022/07/09 06:35:31;;;;;;;1999.90;999.90;;;18.20;99.90;;;;;;5051554;28;20510;-73
2022/07/09 06:37:58;;;;;;;1999.90;999.90;;;18.00;99.90;;;;;;5050255;28;20470;-73
2022/07/09 06:40:25;;;;;;;1999.90;999.90;;;18.10;99.90;;;;;;5050347;28;20458;-74
2022/07/09 06:42:51;;;;;;;1999.90;999.90;;;18.10;99.90;;;;;;5051064;28;20462;-73
2022/07/09 06:45:18;;;;;;;1999.90;999.90;;;18.20;99.90;;;;;;5050872;28;20528;-73
2022/07/09 06:47:46;;;;;;;1999.90;999.90;;;18.40;99.90;;;;;;5050777;28;20466;-72
2022/07/09 06:50:12;;;;;;;1999.90;999.90;;;18.40;99.90;;;;;;5050376;28;20462;-73
2022/07/09 06:52:39;;;;;;;1999.90;999.90;;;18.60;99.90;;;;;;5049400;28;20887;-73
2022/07/09 06:55:06;;;;;;;1999.90;999.90;;;18.60;99.90;;;;;;5049625;28;20474;-72
2022/07/09 06:57:33;;;;;;;1999.90;999.90;;;18.70;99.90;;;;;;5049740;28;20509;-73
2022/07/09 06:59:59;;;;;;;1999.90;999.90;;;18.80;99.90;;;;;;5049142;28;20488;-73
2022/07/09 07:02:26;;;;;;;1999.90;999.90;;;18.70;99.90;;;;;;5048270;28;20512;-73
2022/07/09 07:04:54;;;;;;;1999.90;999.90;;;18.70;99.90;;;;;;5050224;28;20490;-73
2022/07/09 07:07:21;;;;;;;1999.90;999.90;;;18.80;99.90;;;;;;5048238;28;20972;-72
2022/07/09 07:09:47;;;;;;;1999.90;999.90;;;19.00;99.90;;;;;;5051001;28;20950;-73
2022/07/09 07:12:14;;;;;;;1999.90;999.90;;;19.00;99.90;;;;;;5046928;28;20462;-73
2022/07/09 07:14:40;;;;;;;1999.90;999.90;;;19.00;99.90;;;;;;5046029;28;20580;-73
2022/07/09 07:17:07;;;;;;;1999.90;999.90;;;18.80;99.90;;;;;;5048934;28;20515;-73
2022/07/09 07:19:34;;;;;;;1999.90;999.90;;;18.90;99.90;;;;;;5050622;28;20454;-75
2022/07/09 07:22:02;;;;;;;1999.90;999.90;;;18.80;99.90;;;;;;5048247;28;20466;-74
2022/07/09 07:24:30;;;;;;;1999.90;999.90;;;18.90;99.90;;;;;;5050591;28;20486;-73
2022/07/09 07:26:56;;;;;;;1999.90;999.90;;;19.10;99.90;;;;;;5049497;28;20466;-72
2022/07/09 07:29:23;;;;;;;1999.90;999.90;;;19.20;99.90;;;;;;5048522;28;21014;-73
2022/07/09 07:31:50;;;;;;;1999.90;999.90;;;19.30;99.90;;;;;;5048479;28;20610;-73
2022/07/09 07:34:18;;;;;;;1999.90;999.90;;;19.30;99.90;;;;;;5049941;28;20578;-73
2022/07/09 07:36:45;;;;;;;1999.90;999.90;;;19.00;99.90;;;;;;5050280;28;20558;-73
2022/07/09 07:39:13;;;;;;;1999.90;999.90;;;18.90;99.90;;;;;;5049550;28;20950;-74
2022/07/09 07:41:39;;;;;;;1999.90;999.90;;;18.90;99.90;;;;;;5048654;28;20466;-76
2022/07/09 07:44:06;;;;;;;1999.90;999.90;;;19.00;99.90;;;;;;5049990;28;20486;-76
2022/07/09 07:46:32;;;;;;;1999.90;999.90;;;19.00;99.90;;;;;;5050514;28;20462;-73
2022/07/09 07:48:59;;;;;;;1999.90;999.90;;;19.10;99.90;;;;;;5048875;28;20458;-71
2022/07/09 07:51:25;;;;;;;1999.90;999.90;;;19.30;99.90;;;;;;5047209;28;20492;-74
2022/07/09 07:53:52;;;;;;;1999.90;999.90;;;19.50;99.90;;;;;;5049889;28;21056;-76
2022/07/09 07:56:20;;;;;;;1999.90;999.90;;;19.80;99.90;;;;;;5048448;28;20467;-72
2022/07/09 07:58:46;;;;;;;1999.90;999.90;;;19.80;99.90;;;;;;5049370;28;20458;-76
2022/07/09 08:01:13;;;;;;;1999.90;999.90;;;19.50;99.90;;;;;;5047280;28;20463;-73
2022/07/09 08:03:40;;;;;;;1999.90;999.90;;;19.30;99.90;;;;;;5048674;28;20482;-73
2022/07/09 08:06:07;;;;;;;1999.90;999.90;;;19.50;99.90;;;;;;5049214;28;20482;-73
2022/07/09 08:08:34;;;;;;;1999.90;999.90;;;19.50;99.90;;;;;;5049015;28;20466;-73
2022/07/09 08:11:02;;;;;;;1999.90;999.90;;;19.60;99.90;;;;;;5047374;28;21016;-73
2022/07/09 08:13:30;;;;;;;1999.90;999.90;;;19.50;99.90;;;;;;5048667;28;20492;-73
2022/07/09 08:15:57;;;;;;;1999.90;999.90;;;19.50;99.90;;;;;;5047531;28;20497;-74
2022/07/09 08:18:24;;;;;;;1999.90;999.90;;;19.30;99.90;;;;;;5050475;28;20465;-73
2022/07/09 08:20:52;;;;;;;1999.90;999.90;;;19.50;99.90;;;;;;5047357;28;20834;-74
2022/07/09 08:23:18;;;;;;;1999.90;999.90;;;19.70;99.90;;;;;;5049151;28;20487;-77
2022/07/09 08:25:45;;;;;;;1999.90;999.90;;;19.70;99.90;;;;;;5050788;28;20482;-74
2022/07/09 08:28:11;;;;;;;1999.90;999.90;;;19.70;99.90;;;;;;5049406;28;20462;-73
2022/07/09 08:30:39;;;;;;;1999.90;999.90;;;19.40;99.90;;;;;;5050114;28;20466;-73
2022/07/09 08:33:06;;;;;;;1999.90;999.90;;;19.40;99.90;;;;;;5048272;28;20966;-74
2022/07/09 08:35:32;;;;;;;1999.90;999.90;;;19.50;99.90;;;;;;5048753;28;20474;-73
2022/07/09 08:37:59;;;;;;;1999.90;999.90;;;19.90;99.90;;;;;;5048199;28;20517;-72
2022/07/09 08:40:26;;;;;;;1999.90;999.90;;;20.20;99.90;;;;;;5048061;28;20462;-74
2022/07/09 08:42:54;;;;;;;1999.90;999.90;;;20.20;99.90;;;;;;5047425;28;20550;-72
2022/07/09 08:45:21;;;;;;;1999.90;999.90;;;19.90;99.90;;;;;;5048693;28;20483;-72
2022/07/09 08:47:50;;;;;;;1999.90;999.90;;;19.60;99.90;;;;;;5048689;28;20520;-73
2022/07/09 08:50:17;;;;;;;1999.90;999.90;;;19.60;99.90;;;;;;5048870;28;20539;-76
2022/07/09 08:52:44;;;;;;;1999.90;999.90;;;19.70;99.90;;;;;;5046521;28;20970;-72
2022/07/09 08:55:11;;;;;;;1999.90;999.90;;;20.00;99.90;;;;;;5047882;28;20482;-73
2022/07/09 08:57:38;;;;;;;1999.90;999.90;;;20.40;99.90;;;;;;5048415;28;20458;-73
2022/07/09 09:00:06;;;;;;;1999.90;999.90;;;20.90;99.90;;;;;;5047387;28;20458;-71
2022/07/09 09:02:37;;;;;;;1999.90;999.90;;;21.40;99.90;;;;;;5046141;28;20962;-73
2022/07/09 09:05:13;;;;;;;1999.90;999.90;;;21.30;99.90;;;;;;5048390;28;20565;-75
2022/07/09 09:07:40;;;;;;;1999.90;999.90;;;21.10;99.90;;;;;;5048735;28;20520;-76
2022/07/09 09:10:07;;;;;;;1999.90;999.90;;;21.00;99.90;;;;;;5048475;28;20560;-72
2022/07/09 09:12:34;;;;;;;1999.90;999.90;;;20.70;99.90;;;;;;5045639;28;21204;-73
2022/07/09 09:15:06;;;;;;;1999.90;999.90;;;20.60;99.90;;;;;;5043917;28;20836;-73
2022/07/09 09:17:33;;;;;;;1999.90;999.90;;;20.60;99.90;;;;;;5048547;28;20472;-73
2022/07/09 09:20:00;;;;;;;1999.90;999.90;;;20.70;99.90;;;;;;5047145;28;20458;-73
2022/07/09 09:22:28;;;;;;;1999.90;999.90;;;20.80;99.90;;;;;;5046958;28;20461;-73
2022/07/09 09:24:55;;;;;;;1999.90;999.90;;;20.80;99.90;;;;;;5048516;28;21044;-75
2022/07/09 09:27:30;;;;;;;1999.90;999.90;;;20.90;99.90;;;;;;5046141;28;20471;-75
2022/07/09 09:29:59;;;;;;;1999.90;999.90;;;21.10;99.90;;;;;;5049363;28;20458;-73
2022/07/09 09:32:25;;;;;;;1999.90;999.90;;;21.20;99.90;;;;;;5046015;28;20478;-73
2022/07/09 09:34:52;;;;;;;1999.90;999.90;;;21.20;99.90;;;;;;5047745;28;20516;-75
2022/07/09 09:37:28;;;;;;;1999.90;999.90;;;21.00;99.90;;;;;;5047308;28;20467;-73
2022/07/09 09:39:55;;;;;;;1999.90;999.90;;;20.90;99.90;;;;;;5044235;28;20486;-73
2022/07/09 09:42:24;;;;;;;1999.90;999.90;;;20.80;99.90;;;;;;5049752;28;20462;-73
2022/07/09 09:44:51;;;;;;;1999.90;999.90;;;20.60;99.90;;;;;;5053123;28;20484;-72
2022/07/09 09:47:23;;;;;;;1999.90;999.90;;;20.50;99.90;;;;;;5051653;28;21016;-74
2022/07/09 09:49:51;;;;;;;1999.90;999.90;;;20.60;99.90;;;;;;5053356;28;20484;-73
2022/07/09 09:52:20;;;;;;;1999.90;999.90;;;20.50;99.90;;;;;;5049904;28;20470;-73
2022/07/09 09:54:49;;;;;;;1999.90;999.90;;;20.30;99.90;;;;;;5051706;28;20486;-72
2022/07/09 09:57:17;;;;;;;1999.90;999.90;;;20.30;99.90;;;;;;5050717;28;20462;-73
2022/07/09 09:59:45;;;;;;;1999.90;999.90;;;20.10;99.90;;;;;;5052064;28;20848;-74
2022/07/09 10:02:12;;;;;;;1999.90;999.90;;;20.00;99.90;;;;;;5048314;28;20488;-74
2022/07/09 10:04:40;;;;;;;1999.90;999.90;;;20.00;99.90;;;;;;5048346;28;20516;-73
2022/07/09 10:07:07;;;;;;;1999.90;999.90;;;20.10;99.90;;;;;;5049482;28;20665;-73
2022/07/09 10:09:34;;;;;;;1999.90;999.90;;;20.30;99.90;;;;;;5049214;28;20498;-74
2022/07/09 10:12:02;;;;;;;1999.90;999.90;;;20.50;99.90;;;;;;5047521;28;20466;-74
2022/07/09 10:14:33;;;;;;;1999.90;999.90;;;20.60;99.90;;;;;;5045752;28;20494;-73
2022/07/09 10:17:11;;;;;;;1999.90;999.90;;;20.40;99.90;;;;;;5044001;28;20455;-70
2022/07/09 10:19:38;;;;;;;1999.90;999.90;;;20.20;99.90;;;;;;5052625;28;21028;-73
2022/07/09 10:22:05;;;;;;;1999.90;999.90;;;20.00;99.90;;;;;;5050859;28;20470;-74
2022/07/09 10:24:33;;;;;;;1999.90;999.90;;;19.60;99.90;;;;;;5049183;28;20481;-71
2022/07/09 10:27:06;;;;;;;1999.90;999.90;;;19.40;99.90;;;;;;5049868;28;20569;-73
2022/07/09 10:29:34;;;;;;;1999.90;999.90;;;19.40;99.90;;;;;;5050166;28;20462;-75
2022/07/09 10:32:01;;;;;;;1999.90;999.90;;;19.50;99.90;;;;;;5049508;28;20462;-76
2022/07/09 10:34:54;;;;;;;1999.90;999.90;;;19.80;99.90;;;;;;5073270;22;20631;-67
2022/07/09 10:37:31;;;;;;;1999.90;999.90;;;19.70;99.90;;;;;;5050180;28;20450;-66
2022/07/09 10:40:15;;;;;;;1999.90;999.90;;;19.40;99.90;;;;;;5048479;28;20550;-66
2022/07/09 10:42:44;;;;;;;1999.90;999.90;;;19.10;99.90;;;;;;5049453;28;21028;-67
2022/07/09 10:45:24;;;;;;;1999.90;999.90;;;18.80;99.90;;;;;;5050210;28;20478;-67
2022/07/09 10:47:55;;;;;;;1999.90;999.90;;;18.40;99.90;;;;;;5052110;28;20484;-67
2022/07/09 10:50:22;;;;;;;1999.90;999.90;;;18.20;99.90;;;;;;5051385;28;20462;-67
2022/07/09 10:52:49;;;;;;;1999.90;999.90;;;18.20;99.90;;;;;;5047481;28;20844;-67
2022/07/09 10:55:18;;;;;;;1999.90;999.90;;;18.20;99.90;;;;;;5047860;28;20477;-67
2022/07/09 10:57:46;;;;;;;1999.90;999.90;;;18.20;99.90;;;;;;5051651;28;20462;-67
2022/07/09 11:00:15;;;;;;;1999.90;999.90;;;18.20;99.90;;;;;;5051016;28;20516;-67
2022/07/09 11:02:55;;;;;;;1999.90;999.90;;;18.20;99.90;;;;;;5047584;28;20517;-67
2022/07/09 11:05:22;;;;;;;1999.90;999.90;;;18.20;99.90;;;;;;5045980;28;20521;-67
2022/07/09 11:08:03;;;;;;;1999.90;999.90;;;18.30;99.90;;;;;;5050710;28;20463;-67
2022/07/09 11:10:30;;;;;;;1999.90;999.90;;;18.30;99.90;;;;;;5050057;28;20467;-67
2022/07/09 11:13:00;;;;;;;1999.90;999.90;;;18.40;99.90;;;;;;5047686;28;20462;-67
2022/07/09 11:15:29;;;;;;;1999.90;999.90;;;18.70;99.90;;;;;;5047510;28;20647;-67
2022/07/09 11:18:01;;;;;;;1999.90;999.90;;;18.90;99.90;;;;;;5046608;28;20551;-67
2022/07/09 11:20:29;;;;;;;1999.90;999.90;;;19.00;99.90;;;;;;5049001;28;20489;-66
2022/07/09 11:22:56;;;;;;;1999.90;999.90;;;19.30;99.90;;;;;;5042561;28;20516;-67
2022/07/09 11:25:25;;;;;;;1999.90;999.90;;;19.60;99.90;;;;;;5049655;28;21015;-67
2022/07/09 11:27:51;;;;;;;1999.90;999.90;;;19.90;99.90;;;;;;5050508;28;20980;-67
2022/07/09 11:30:19;;;;;;;1999.90;999.90;;;19.90;99.90;;;;;;5050374;28;20501;-67
2022/07/09 11:32:47;;;;;;;1999.90;999.90;;;19.80;99.90;;;;;;5048695;28;20465;-67
2022/07/09 11:35:24;;;;;;;1999.90;999.90;;;20.10;99.90;;;;;;5049697;28;20485;-69
2022/07/09 11:37:51;;;;;;;1999.90;999.90;;;20.80;99.90;;;;;;5050593;28;20468;-69
2022/07/09 11:40:19;;;;;;;1999.90;999.90;;;20.70;99.90;;;;;;5050025;28;20462;-69
2022/07/09 11:42:46;;;;;;;1999.90;999.90;;;21.20;99.90;;;;;;5047314;28;21354;-69
2022/07/09 11:45:13;;;;;;;1999.90;999.90;;;21.70;99.90;;;;;;5048821;28;20474;-69
2022/07/09 11:47:41;;;;;;;1999.90;999.90;;;22.10;99.90;;;;;;5048922;28;20485;-69
2022/07/09 11:50:10;;;;;;;1999.90;999.90;;;22.30;99.90;;;;;;5049429;28;20528;-70
2022/07/09 11:52:37;;;;;;;1999.90;999.90;;;21.70;99.90;;;;;;5048105;28;20459;-69
2022/07/09 11:55:06;;;;;;;1999.90;999.90;;;22.00;99.90;;;;;;5046409;28;20482;-70
2022/07/09 11:57:35;;;;;;;1999.90;999.90;;;22.20;99.90;;;;;;5049872;28;20515;-70
2022/07/09 12:00:04;;;;;;;1999.90;999.90;;;22.30;99.90;;;;;;5050623;28;20459;-69